Time;durP1;ratioP1;P1;durP2;ratioP2;P2;SDS_P1;SDS_P2;PMS_P1;PMS_P2;Temp;Humidity;BMP_temperature;BMP_pressure;BME280_temperature;BME280_humidity;BME280_pressure;Samples;Min_cycle;Max_cycle;Signal;HPM_P1;HPM_P2
2022/10/28 00:00:43;;;;;;;;;;;16.50;99.90;;;;;;5070856;28;19928;-55
2022/10/28 00:03:09;;;;;;;;;;;16.40;99.90;;;;;;5069578;28;20421;-55
2022/10/28 00:05:34;;;;;;;;;;;16.40;99.90;;;;;;5071915;28;19932;-55
2022/10/28 00:07:59;;;;;;;;;;;16.40;99.90;;;;;;5074928;28;20013;-55
2022/10/28 00:10:25;;;;;;;;;;;16.40;99.90;;;;;;5073476;28;19928;-56
2022/10/28 00:12:50;;;;;;;;;;;16.40;99.90;;;;;;5081144;28;20298;-52
2022/10/28 00:15:16;;;;;;;;;;;16.40;99.90;;;;;;5093355;28;19993;-53
2022/10/28 00:17:42;;;;;;;;;;;16.40;99.90;;;;;;5075457;28;19920;-50
2022/10/28 00:20:07;;;;;;;;;;;16.50;99.90;;;;;;5073437;28;20336;-53
2022/10/28 00:22:33;;;;;;;;;;;16.50;99.90;;;;;;5074022;28;19921;-52
2022/10/28 00:24:58;;;;;;;;;;;16.50;99.90;;;;;;5072775;28;19998;-54
2022/10/28 00:27:24;;;;;;;;;;;16.50;99.90;;;;;;5076608;28;20193;-52
2022/10/28 00:29:49;;;;;;;;;;;16.50;99.90;;;;;;5072913;28;20408;-53
2022/10/28 00:32:15;;;;;;;;;;;16.50;99.90;;;;;;5087954;28;19931;-52
2022/10/28 00:34:40;;;;;;;;;;;16.50;99.90;;;;;;5072714;28;19927;-53
2022/10/28 00:37:05;;;;;;;;;;;16.40;99.90;;;;;;5087392;28;19946;-54
2022/10/28 00:39:31;;;;;;;;;;;16.40;99.90;;;;;;5092926;28;19927;-53
2022/10/28 00:41:57;;;;;;;;;;;16.40;99.90;;;;;;5080654;28;19924;-51
2022/10/28 00:44:39;;;;;;;;;;;16.40;99.90;;;;;;5076846;28;19928;-52
2022/10/28 00:47:28;;;;;;;;;;;16.30;99.90;;;;;;5076769;28;19924;-51
2022/10/28 00:49:56;;;;;;;;;;;16.30;99.90;;;;;;5052410;28;19966;-51
2022/10/28 00:52:24;;;;;;;;;;;16.30;99.90;;;;;;5084885;28;20355;-53
2022/10/28 00:54:50;;;;;;;;;;;16.20;99.90;;;;;;5073479;28;19975;-52
2022/10/28 00:57:18;;;;;;;;;;;16.10;99.90;;;;;;5073298;28;20208;-51
2022/10/28 00:59:46;;;;;;;;;;;16.00;99.90;;;;;;5072880;28;20333;-52
2022/10/28 01:02:11;;;;;;;;;;;15.90;99.90;;;;;;5080157;28;19920;-52
2022/10/28 01:04:37;;;;;;;;;;;15.80;99.90;;;;;;5090913;28;19931;-53
2022/10/28 01:07:02;;;;;;;;;;;15.70;99.90;;;;;;5078522;28;19974;-54
2022/10/28 01:09:28;;;;;;;;;;;15.70;99.90;;;;;;5083523;28;19928;-55
2022/10/28 01:11:59;;;;;;;;;;;15.60;99.90;;;;;;5073994;28;19971;-51
2022/10/28 01:14:43;;;;;;;;;;;15.60;99.90;;;;;;5092289;28;19928;-51
2022/10/28 01:17:18;;;;;;;;;;;15.60;99.90;;;;;;5077275;28;19973;-51
2022/10/28 01:20:03;;;;;;;;;;;15.50;99.90;;;;;;5072084;28;19920;-53
2022/10/28 01:22:31;;;;;;;;;;;15.50;99.90;;;;;;5076406;28;20075;-53
2022/10/28 01:25:15;;;;;;;;;;;15.40;99.90;;;;;;5091866;28;19924;-53
2022/10/28 01:27:52;;;;;;;;;;;15.40;99.90;;;;;;5088545;28;19920;-51
2022/10/28 01:30:19;;;;;;;;;;;15.40;99.90;;;;;;5092069;28;19920;-54
2022/10/28 01:32:51;;;;;;;;;;;15.30;99.90;;;;;;5073557;28;19924;-55
2022/10/28 01:35:28;;;;;;;;;;;15.30;99.90;;;;;;5071549;28;19920;-53
2022/10/28 01:38:00;;;;;;;;;;;15.30;99.90;;;;;;5074263;28;19921;-51
2022/10/28 01:40:31;;;;;;;;;;;15.20;99.90;;;;;;5071589;28;20301;-54
2022/10/28 01:42:57;;;;;;;;;;;15.20;99.90;;;;;;5074238;28;19920;-54
2022/10/28 01:45:22;;;;;;;;;;;15.20;99.90;;;;;;5091872;28;19927;-51
2022/10/28 01:47:48;;;;;;;;;;;15.10;99.90;;;;;;5088204;28;20003;-55
2022/10/28 01:50:17;;;;;;;;;;;15.10;99.90;;;;;;5091648;28;19920;-55
2022/10/28 01:52:43;;;;;;;;;;;15.10;99.90;;;;;;5091496;28;19920;-54
2022/10/28 01:55:15;;;;;;;;;;;15.10;99.90;;;;;;5071067;28;20372;-55
2022/10/28 01:57:40;;;;;;;;;;;15.00;99.90;;;;;;5085945;28;19927;-54
2022/10/28 02:00:06;;;;;;;;;;;15.00;99.90;;;;;;5076248;28;19920;-54
2022/10/28 02:02:33;;;;;;;;;;;15.00;99.90;;;;;;5070971;28;19921;-54
2022/10/28 02:05:24;;;;;;;;;;;15.00;99.90;;;;;;5084212;28;19924;-53
2022/10/28 02:07:52;;;;;;;;;;;14.90;99.90;;;;;;5088383;28;19920;-54
2022/10/28 02:10:21;;;;;;;;;;;14.80;99.90;;;;;;5072216;28;19935;-56
2022/10/28 02:12:50;;;;;;;;;;;14.80;99.90;;;;;;5070688;28;19920;-55
2022/10/28 02:15:24;;;;;;;;;;;14.70;99.90;;;;;;5084100;28;19924;-53
2022/10/28 02:17:55;;;;;;;;;;;14.70;99.90;;;;;;5080433;28;19921;-55
2022/10/28 02:20:39;;;;;;;;;;;14.70;99.90;;;;;;5075523;28;19970;-54
2022/10/28 02:23:18;;;;;;;;;;;14.70;99.90;;;;;;5089240;28;19920;-54
2022/10/28 02:25:47;;;;;;;;;;;14.60;99.90;;;;;;5076642;28;19929;-55
2022/10/28 02:28:16;;;;;;;;;;;14.60;99.90;;;;;;5071441;28;19927;-54
2022/10/28 02:30:44;;;;;;;;;;;14.60;99.90;;;;;;5073329;28;20003;-55
2022/10/28 02:33:11;;;;;;;;;;;14.60;99.90;;;;;;5070131;28;20273;-53
2022/10/28 02:35:43;;;;;;;;;;;14.50;99.90;;;;;;5070606;28;19921;-51
2022/10/28 02:38:17;;;;;;;;;;;14.50;99.90;;;;;;5070934;28;19921;-52
2022/10/28 02:40:44;;;;;;;;;;;14.50;99.90;;;;;;5080250;28;19927;-56
2022/10/28 02:43:12;;;;;;;;;;;14.50;99.90;;;;;;5084275;28;20015;-52
2022/10/28 02:45:39;;;;;;;;;;;14.50;99.90;;;;;;5071155;28;19970;-55
2022/10/28 02:48:20;;;;;;;;;;;14.50;99.90;;;;;;5070874;28;20349;-54
2022/10/28 02:50:48;;;;;;;;;;;14.50;99.90;;;;;;5070918;28;19977;-51
2022/10/28 02:53:17;;;;;;;;;;;14.50;99.90;;;;;;5070218;28;19927;-53
2022/10/28 02:55:43;;;;;;;;;;;14.50;99.90;;;;;;5070512;28;20329;-51
2022/10/28 02:58:09;;;;;;;;;;;14.50;99.90;;;;;;5071929;28;20289;-53
2022/10/28 03:00:35;;;;;;;;;;;14.50;99.90;;;;;;5090556;28;19927;-51
2022/10/28 03:03:00;;;;;;;;;;;14.50;99.90;;;;;;5086840;28;19921;-54
2022/10/28 03:05:26;;;;;;;;;;;14.50;99.90;;;;;;5073832;28;20019;-53
2022/10/28 03:07:51;;;;;;;;;;;14.50;99.90;;;;;;5090428;28;19920;-52
2022/10/28 03:10:17;;;;;;;;;;;14.50;99.90;;;;;;5076710;28;19974;-52
2022/10/28 03:12:42;;;;;;;;;;;14.40;99.90;;;;;;5089748;28;19924;-54
2022/10/28 03:15:08;;;;;;;;;;;14.50;99.90;;;;;;5090150;28;19981;-50
2022/10/28 03:17:33;;;;;;;;;;;14.50;99.90;;;;;;5071003;28;19967;-54
2022/10/28 03:19:59;;;;;;;;;;;14.50;99.90;;;;;;5071386;28;20202;-51
2022/10/28 03:22:24;;;;;;;;;;;14.50;99.90;;;;;;5073990;28;19974;-52
2022/10/28 03:24:49;;;;;;;;;;;14.50;99.90;;;;;;5089041;28;20307;-51
2022/10/28 03:27:15;;;;;;;;;;;14.50;99.90;;;;;;5080031;28;19924;-54
2022/10/28 03:29:40;;;;;;;;;;;14.50;99.90;;;;;;5090108;28;19943;-53
2022/10/28 03:32:06;;;;;;;;;;;14.50;99.90;;;;;;5078176;28;19921;-52
2022/10/28 03:34:31;;;;;;;;;;;14.50;99.90;;;;;;5069860;28;20466;-54
2022/10/28 03:36:57;;;;;;;;;;;14.50;99.90;;;;;;5071214;28;20011;-54
2022/10/28 03:39:22;;;;;;;;;;;14.50;99.90;;;;;;5070571;28;19920;-54
2022/10/28 03:41:48;;;;;;;;;;;14.40;99.90;;;;;;5076364;28;19927;-55
2022/10/28 03:44:13;;;;;;;;;;;14.40;99.90;;;;;;5081392;28;19973;-53
2022/10/28 03:46:39;;;;;;;;;;;14.40;99.90;;;;;;5078326;28;19954;-51
2022/10/28 03:49:04;;;;;;;;;;;14.30;99.90;;;;;;5094219;28;19927;-53
2022/10/28 03:51:29;;;;;;;;;;;14.30;99.90;;;;;;5092377;28;19924;-53
2022/10/28 03:53:55;;;;;;;;;;;14.30;99.90;;;;;;5090499;28;19931;-51
2022/10/28 03:56:20;;;;;;;;;;;14.30;99.90;;;;;;5073198;28;20483;-52
2022/10/28 03:58:47;;;;;;;;;;;14.20;99.90;;;;;;5076288;28;19921;-54
2022/10/28 04:01:12;;;;;;;;;;;14.20;99.90;;;;;;5074044;28;19927;-53
2022/10/28 04:03:38;;;;;;;;;;;14.20;99.90;;;;;;5074279;28;20386;-50
2022/10/28 04:06:04;;;;;;;;;;;14.30;99.90;;;;;;5088271;28;19934;-50
2022/10/28 04:08:29;;;;;;;;;;;14.20;99.90;;;;;;5078648;28;20278;-53
2022/10/28 04:10:55;;;;;;;;;;;14.20;99.90;;;;;;5090230;28;19977;-54
2022/10/28 04:13:20;;;;;;;;;;;14.20;99.90;;;;;;5091313;28;19920;-54
2022/10/28 04:15:45;;;;;;;;;;;14.20;99.90;;;;;;5092944;28;19963;-52
2022/10/28 04:18:11;;;;;;;;;;;14.20;99.90;;;;;;5083260;28;19935;-51
2022/10/28 04:20:37;;;;;;;;;;;14.20;99.90;;;;;;5073334;28;20312;-53
2022/10/28 04:23:02;;;;;;;;;;;14.30;99.90;;;;;;5080598;28;19927;-55
2022/10/28 04:25:28;;;;;;;;;;;14.30;99.90;;;;;;5090447;28;20393;-54
2022/10/28 04:27:53;;;;;;;;;;;14.30;99.90;;;;;;5078656;28;19920;-51
2022/10/28 04:30:19;;;;;;;;;;;14.30;99.90;;;;;;5080692;28;19965;-52
2022/10/28 04:32:44;;;;;;;;;;;14.30;99.90;;;;;;5074529;28;20399;-54
2022/10/28 04:35:10;;;;;;;;;;;14.30;99.90;;;;;;5074930;28;20015;-54
2022/10/28 04:37:36;;;;;;;;;;;14.30;99.90;;;;;;5092329;28;19985;-54
2022/10/28 04:40:02;;;;;;;;;;;14.40;99.90;;;;;;5071044;28;20410;-54
2022/10/28 04:42:28;;;;;;;;;;;14.40;99.90;;;;;;5090524;28;19924;-54
2022/10/28 04:44:53;;;;;;;;;;;14.50;99.90;;;;;;5073795;28;19932;-53
2022/10/28 04:47:19;;;;;;;;;;;14.50;99.90;;;;;;5076199;28;19942;-54
2022/10/28 04:49:44;;;;;;;;;;;14.60;99.90;;;;;;5077053;28;19920;-53
2022/10/28 04:52:10;;;;;;;;;;;14.70;99.90;;;;;;5073376;28;20441;-54
2022/10/28 04:54:35;;;;;;;;;;;14.80;99.90;;;;;;5075220;28;19925;-53
2022/10/28 04:57:01;;;;;;;;;;;14.90;99.90;;;;;;5073247;28;19960;-52
2022/10/28 04:59:26;;;;;;;;;;;15.00;99.90;;;;;;5082169;28;20389;-52
2022/10/28 05:01:52;;;;;;;;;;;15.10;99.90;;;;;;5073398;28;19974;-54
2022/10/28 05:04:17;;;;;;;;;;;15.20;99.90;;;;;;5086252;28;19969;-55
2022/10/28 05:06:43;;;;;;;;;;;15.30;99.90;;;;;;5081168;28;20010;-51
2022/10/28 05:09:08;;;;;;;;;;;15.30;99.90;;;;;;5072040;28;19920;-54
2022/10/28 05:11:34;;;;;;;;;;;15.30;99.90;;;;;;5073044;28;19946;-55
2022/10/28 05:13:59;;;;;;;;;;;15.40;99.90;;;;;;5072151;28;20007;-54
2022/10/28 05:16:25;;;;;;;;;;;15.40;99.90;;;;;;5078393;28;19924;-51
2022/10/28 05:18:50;;;;;;;;;;;15.40;99.90;;;;;;5092313;28;19924;-55
2022/10/28 05:21:16;;;;;;;;;;;15.50;99.90;;;;;;5088636;28;20301;-54
2022/10/28 05:23:41;;;;;;;;;;;15.50;99.90;;;;;;5073230;28;19925;-54
2022/10/28 05:26:07;;;;;;;;;;;15.50;99.90;;;;;;5090328;28;20000;-53
2022/10/28 05:28:32;;;;;;;;;;;15.60;99.90;;;;;;5085351;28;19998;-55
2022/10/28 05:30:57;;;;;;;;;;;15.60;99.90;;;;;;5092210;28;19920;-51
2022/10/28 05:33:23;;;;;;;;;;;15.70;99.90;;;;;;5072628;28;19920;-50
2022/10/28 05:35:49;;;;;;;;;;;15.70;99.90;;;;;;5071679;28;20385;-53
2022/10/28 05:38:14;;;;;;;;;;;15.70;99.90;;;;;;5075641;28;19920;-53
2022/10/28 05:40:40;;;;;;;;;;;15.70;99.90;;;;;;5078808;28;19963;-51
2022/10/28 05:43:05;;;;;;;;;;;15.70;99.90;;;;;;5078393;28;19925;-52
2022/10/28 05:45:31;;;;;;;;;;;15.70;99.90;;;;;;5083346;28;19924;-52
2022/10/28 05:47:56;;;;;;;;;;;15.70;99.90;;;;;;5077430;28;19963;-51
2022/10/28 05:50:22;;;;;;;;;;;15.70;99.90;;;;;;5091488;28;19927;-53
2022/10/28 05:52:48;;;;;;;;;;;15.80;99.90;;;;;;5091341;28;20010;-54
2022/10/28 05:55:14;;;;;;;;;;;15.80;99.90;;;;;;5089532;28;19932;-53
2022/10/28 05:57:39;;;;;;;;;;;15.80;99.90;;;;;;5077382;28;19966;-53
2022/10/28 06:00:05;;;;;;;;;;;15.80;99.90;;;;;;5080228;28;19934;-54
2022/10/28 06:02:31;;;;;;;;;;;15.80;99.90;;;;;;5084842;28;19966;-52
2022/10/28 06:04:56;;;;;;;;;;;15.80;99.90;;;;;;5075315;28;19924;-53
2022/10/28 06:07:23;;;;;;;;;;;15.80;99.90;;;;;;5080520;28;19927;-51
2022/10/28 06:09:49;;;;;;;;;;;15.80;99.90;;;;;;5090127;28;21045;-51
2022/10/28 06:12:15;;;;;;;;;;;15.80;99.90;;;;;;5081303;28;20006;-52
2022/10/28 06:14:40;;;;;;;;;;;15.80;99.90;;;;;;5070352;28;20375;-53
2022/10/28 06:17:06;;;;;;;;;;;15.80;99.90;;;;;;5071030;28;19985;-51
2022/10/28 06:19:31;;;;;;;;;;;15.80;99.90;;;;;;5071495;28;20019;-51
2022/10/28 06:21:57;;;;;;;;;;;15.80;99.90;;;;;;5070785;28;19932;-53
2022/10/28 06:24:22;;;;;;;;;;;15.80;99.90;;;;;;5087736;28;20072;-52
2022/10/28 06:26:48;;;;;;;;;;;15.80;99.90;;;;;;5081509;28;19921;-52
2022/10/28 06:29:13;;;;;;;;;;;15.80;99.90;;;;;;5070853;28;19925;-54
2022/10/28 06:31:39;;;;;;;;;;;15.80;99.90;;;;;;5081399;28;19927;-51
2022/10/28 06:34:05;;;;;;;;;;;15.70;99.90;;;;;;5070120;28;19928;-51
2022/10/28 06:36:30;;;;;;;;;;;15.80;99.90;;;;;;5084694;28;20384;-51
2022/10/28 06:38:56;;;;;;;;;;;15.80;99.90;;;;;;5091027;28;19927;-51
2022/10/28 06:41:21;;;;;;;;;;;15.90;99.90;;;;;;5085735;28;20208;-51
2022/10/28 06:43:46;;;;;;;;;;;15.90;99.90;;;;;;5077664;28;19996;-51
2022/10/28 06:46:12;;;;;;;;;;;15.90;99.90;;;;;;5079780;28;19924;-55
2022/10/28 06:48:37;;;;;;;;;;;16.00;99.90;;;;;;5071733;28;19921;-55
2022/10/28 06:51:03;;;;;;;;;;;16.00;99.90;;;;;;5071213;28;19955;-54
2022/10/28 06:53:28;;;;;;;;;;;16.10;99.90;;;;;;5070132;28;20397;-51
2022/10/28 06:55:55;;;;;;;;;;;16.10;99.90;;;;;;5074218;28;19935;-51
2022/10/28 06:58:21;;;;;;;;;;;16.10;99.90;;;;;;5087636;28;19927;-55
2022/10/28 07:00:46;;;;;;;;;;;16.10;99.90;;;;;;5082483;28;20305;-52
2022/10/28 07:03:12;;;;;;;;;;;16.10;99.90;;;;;;5076319;28;20377;-55
2022/10/28 07:05:37;;;;;;;;;;;16.10;99.90;;;;;;5078446;28;19932;-54
2022/10/28 07:08:03;;;;;;;;;;;16.10;99.90;;;;;;5071728;28;20401;-53
2022/10/28 07:10:29;;;;;;;;;;;16.30;99.90;;;;;;5079815;28;20003;-53
2022/10/28 07:12:54;;;;;;;;;;;16.60;99.90;;;;;;5088493;28;20001;-54
2022/10/28 07:15:20;;;;;;;;;;;17.00;99.90;;;;;;5087236;28;20014;-54
2022/10/28 07:17:50;;;;;;;;;;;17.30;99.90;;;;;;5080663;28;19959;-52
2022/10/28 07:20:16;;;;;;;;;;;17.60;99.90;;;;;;5075878;28;19920;-56
2022/10/28 07:22:41;;;;;;;;;;;17.90;99.90;;;;;;5086131;28;20371;-56
2022/10/28 07:25:07;;;;;;;;;;;18.00;99.90;;;;;;5076845;28;19936;-56
2022/10/28 07:27:32;;;;;;;;;;;18.10;99.90;;;;;;5075457;28;19921;-53
2022/10/28 07:29:58;;;;;;;;;;;18.10;99.90;;;;;;5079178;28;19920;-54
2022/10/28 07:32:23;;;;;;;;;;;18.30;99.90;;;;;;5084207;28;19928;-53
2022/10/28 07:34:49;;;;;;;;;;;18.40;99.90;;;;;;5078553;28;20349;-53
2022/10/28 07:37:14;;;;;;;;;;;18.40;99.90;;;;;;5081449;28;20308;-54
2022/10/28 07:39:40;;;;;;;;;;;18.40;99.90;;;;;;5086828;28;19927;-53
2022/10/28 07:42:05;;;;;;;;;;;18.30;99.90;;;;;;5074444;28;20140;-55
2022/10/28 07:44:31;;;;;;;;;;;18.30;99.90;;;;;;5091857;28;19931;-54
2022/10/28 07:46:56;;;;;;;;;;;18.20;99.90;;;;;;5090479;28;20003;-53
2022/10/28 07:49:22;;;;;;;;;;;18.20;99.90;;;;;;5077140;28;19928;-56
2022/10/28 07:51:48;;;;;;;;;;;18.20;99.90;;;;;;5074961;28;19928;-56
2022/10/28 07:54:14;;;;;;;;;;;18.20;99.90;;;;;;5072710;28;19932;-56
2022/10/28 07:56:39;;;;;;;;;;;18.30;99.90;;;;;;5074989;28;20018;-53
2022/10/28 07:59:05;;;;;;;;;;;18.30;99.90;;;;;;5077527;28;20412;-54
2022/10/28 08:01:30;;;;;;;;;;;18.40;99.90;;;;;;5089722;28;19926;-56
2022/10/28 08:03:56;;;;;;;;;;;18.40;99.90;;;;;;5089266;28;19967;-53
2022/10/28 08:06:21;;;;;;;;;;;18.50;99.90;;;;;;5084377;28;19931;-52
2022/10/28 08:08:47;;;;;;;;;;;18.50;99.90;;;;;;5073063;28;19921;-53
2022/10/28 08:11:14;;;;;;;;;;;18.50;99.90;;;;;;5072891;28;19921;-54
2022/10/28 08:13:40;;;;;;;;;;;18.60;99.90;;;;;;5087560;28;19924;-53
2022/10/28 08:16:06;;;;;;;;;;;18.60;99.90;;;;;;5075544;28;19925;-55
2022/10/28 08:18:32;;;;;;;;;;;18.70;99.90;;;;;;5079129;28;20221;-53
2022/10/28 08:20:59;;;;;;;;;;;18.70;99.90;;;;;;5081897;28;20011;-54
2022/10/28 08:23:24;;;;;;;;;;;18.70;99.90;;;;;;5082309;28;19943;-52
2022/10/28 08:25:50;;;;;;;;;;;18.80;99.90;;;;;;5075947;28;20380;-53
2022/10/28 08:28:16;;;;;;;;;;;18.80;99.90;;;;;;5077116;28;20023;-55
2022/10/28 08:30:42;;;;;;;;;;;18.80;99.90;;;;;;5076371;28;19928;-54
2022/10/28 08:33:07;;;;;;;;;;;18.90;99.90;;;;;;5079546;28;20432;-52
2022/10/28 08:35:34;;;;;;;;;;;19.00;99.90;;;;;;5078974;28;19920;-52
2022/10/28 08:38:00;;;;;;;;;;;19.00;99.90;;;;;;5082769;28;19989;-52
2022/10/28 08:40:31;;;;;;;;;;;19.10;99.90;;;;;;5085983;28;20010;-52
2022/10/28 08:42:59;;;;;;;;;;;19.20;99.90;;;;;;5073625;28;19920;-54
2022/10/28 08:45:25;;;;;;;;;;;19.20;99.90;;;;;;5084262;28;19924;-54
2022/10/28 08:47:53;;;;;;;;;;;19.20;99.90;;;;;;5080737;28;19924;-54
2022/10/28 08:50:20;;;;;;;;;;;19.30;99.90;;;;;;5077655;28;19982;-54
2022/10/28 08:53:04;;;;;;;;;;;19.30;99.90;;;;;;5077202;28;20014;-53
2022/10/28 08:55:30;;;;;;;;;;;19.40;99.90;;;;;;5071684;28;19920;-52
2022/10/28 08:57:59;;;;;;;;;;;19.50;99.90;;;;;;5072986;28;20319;-56
2022/10/28 09:00:26;;;;;;;;;;;19.60;99.90;;;;;;5073294;28;19946;-53
2022/10/28 09:02:56;;;;;;;;;;;19.70;99.90;;;;;;5077998;28;19924;-57
2022/10/28 09:05:25;;;;;;;;;;;19.80;99.90;;;;;;5085395;28;20015;-55
2022/10/28 09:07:51;;;;;;;;;;;19.80;99.90;;;;;;5072373;28;20042;-54
2022/10/28 09:10:19;;;;;;;;;;;19.90;99.90;;;;;;5079288;28;20031;-54
2022/10/28 09:12:58;;;;;;;;;;;20.00;99.90;;;;;;5081319;28;20414;-54
2022/10/28 09:15:32;;;;;;;;;;;20.00;99.90;;;;;;5083317;28;20019;-51
2022/10/28 09:18:11;;;;;;;;;;;20.00;99.90;;;;;;5081166;28;20312;-54
2022/10/28 09:20:39;;;;;;;;;;;20.00;99.90;;;;;;5071362;28;19928;-54
2022/10/28 09:23:14;;;;;;;;;;;20.00;99.90;;;;;;5080332;28;19923;-54
2022/10/28 09:25:58;;;;;;;;;;;20.00;99.90;;;;;;5081243;28;19936;-52
2022/10/28 09:28:31;;;;;;;;;;;20.00;99.90;;;;;;5086225;28;19924;-54
2022/10/28 09:31:07;;;;;;;;;;;20.00;99.90;;;;;;5080412;28;19920;-54
2022/10/28 09:33:51;;;;;;;;;;;19.90;99.90;;;;;;5075171;28;20011;-53
2022/10/28 09:36:22;;;;;;;;;;;19.90;99.90;;;;;;5075118;28;20007;-55
2022/10/28 09:38:50;;;;;;;;;;;19.80;99.90;;;;;;5076539;28;19921;-55
2022/10/28 09:41:20;;;;;;;;;;;19.70;99.90;;;;;;5080545;28;20381;-52
2022/10/28 09:43:48;;;;;;;;;;;19.70;99.90;;;;;;5078955;28;19935;-53
2022/10/28 09:46:15;;;;;;;;;;;19.70;99.90;;;;;;5083132;28;20469;-54
2022/10/28 09:48:42;;;;;;;;;;;19.60;99.90;;;;;;5077941;28;20366;-54
2022/10/28 09:51:18;;;;;;;;;;;19.60;99.90;;;;;;5079116;28;19920;-53
2022/10/28 09:53:48;;;;;;;;;;;19.60;99.90;;;;;;5074130;28;20328;-54
2022/10/28 09:56:14;;;;;;;;;;;19.50;99.90;;;;;;5071690;28;20400;-54
2022/10/28 09:58:42;;;;;;;;;;;19.50;99.90;;;;;;5074236;28;19929;-56
2022/10/28 10:01:08;;;;;;;;;;;19.50;99.90;;;;;;5075205;28;20400;-54
2022/10/28 10:03:33;;;;;;;;;;;19.40;99.90;;;;;;5074594;28;20015;-54
2022/10/28 10:06:04;;;;;;;;;;;19.40;99.90;;;;;;5077225;28;19977;-53
2022/10/28 10:08:30;;;;;;;;;;;19.50;99.90;;;;;;5080208;28;19959;-55
2022/10/28 10:11:00;;;;;;;;;;;19.40;99.90;;;;;;5079871;28;19928;-54
2022/10/28 10:13:32;;;;;;;;;;;19.40;99.90;;;;;;5079557;28;19928;-56
2022/10/28 10:16:10;;;;;;;;;;;19.50;99.90;;;;;;5071017;28;19943;-55
2022/10/28 10:18:35;;;;;;;;;;;19.50;99.90;;;;;;5080363;28;20017;-56
2022/10/28 10:21:01;;;;;;;;;;;19.50;99.90;;;;;;5074634;28;20460;-54
2022/10/28 10:23:27;;;;;;;;;;;19.60;99.90;;;;;;5078732;28;20318;-56
2022/10/28 10:25:53;;;;;;;;;;;19.60;99.90;;;;;;5074246;28;20270;-54
2022/10/28 10:28:20;;;;;;;;;;;19.70;99.90;;;;;;5085474;28;19955;-56
2022/10/28 10:30:50;;;;;;;;;;;19.70;99.90;;;;;;5079389;28;19924;-56
2022/10/28 10:33:20;;;;;;;;;;;19.80;99.90;;;;;;5075348;28;19924;-55
2022/10/28 10:35:51;;;;;;;;;;;19.90;99.90;;;;;;5087955;28;19977;-55
2022/10/28 10:38:17;;;;;;;;;;;20.00;99.90;;;;;;5079731;28;19965;-56
2022/10/28 10:40:47;;;;;;;;;;;20.10;99.90;;;;;;5074810;28;20010;-56
2022/10/28 10:43:12;;;;;;;;;;;20.30;99.90;;;;;;5085541;28;20007;-54
2022/10/28 10:45:38;;;;;;;;;;;20.40;99.90;;;;;;5081089;28;20062;-53
2022/10/28 10:48:05;;;;;;;;;;;20.50;99.90;;;;;;5085200;28;19920;-54
2022/10/28 10:50:30;;;;;;;;;;;20.60;99.90;;;;;;5090241;28;19924;-52
2022/10/28 10:52:58;;;;;;;;;;;20.70;99.90;;;;;;5089923;28;19920;-55
2022/10/28 10:55:37;;;;;;;;;;;20.70;99.90;;;;;;5088109;28;19927;-54
2022/10/28 10:58:04;;;;;;;;;;;20.70;99.90;;;;;;5090602;28;19935;-52
2022/10/28 11:00:37;;;;;;;;;;;20.70;99.90;;;;;;5077128;28;19928;-52
2022/10/28 11:03:04;;;;;;;;;;;20.70;99.90;;;;;;5078204;28;20036;-55
2022/10/28 11:05:29;;;;;;;;;;;20.70;99.90;;;;;;5083802;28;19924;-53
2022/10/28 11:07:56;;;;;;;;;;;20.70;99.90;;;;;;5081399;28;19931;-54
2022/10/28 11:10:29;;;;;;;;;;;20.70;99.90;;;;;;5070847;28;19927;-55
2022/10/28 11:12:56;;;;;;;;;;;20.70;99.90;;;;;;5098894;28;20412;-54
2022/10/28 11:15:23;;;;;;;;;;;20.70;99.90;;;;;;5108747;28;19926;-53
2022/10/28 11:18:02;;;;;;;;;;;20.60;99.90;;;;;;5070582;28;19920;-55
2022/10/28 11:20:30;;;;;;;;;;;20.60;99.90;;;;;;5086716;28;20381;-51
2022/10/28 11:22:55;;;;;;;;;;;20.60;99.90;;;;;;5078120;28;19928;-53
2022/10/28 11:25:20;;;;;;;;;;;20.60;99.90;;;;;;5084672;28;20277;-52
2022/10/28 11:28:07;;;;;;;;;;;20.60;99.90;;;;;;5074230;28;20007;-53
2022/10/28 11:30:41;;;;;;;;;;;20.60;99.90;;;;;;5071510;28;19920;-52
2022/10/28 11:33:10;;;;;;;;;;;20.70;99.90;;;;;;5099024;28;19919;-55
2022/10/28 11:35:45;;;;;;;;;;;20.80;99.90;;;;;;5105238;28;19924;-55
2022/10/28 11:40:42;;;;;;;17.48;4.00;;;21.10;99.90;;;;;;5093607;27;20406;-55
2022/10/28 11:43:19;;;;;;;13.18;4.18;;;21.10;99.90;;;;;;5104914;28;20432;-56
2022/10/28 11:46:05;;;;;;;22.30;4.93;;;21.10;99.90;;;;;;5106352;28;20043;-56
2022/10/28 11:49:01;;;;;;;22.00;4.50;;;21.10;99.90;;;;;;5103229;28;20047;-54
2022/10/28 11:51:58;;;;;;;17.35;3.95;;;21.20;99.90;;;;;;5089047;28;20048;-56
2022/10/28 11:54:44;;;;;;;12.02;3.67;;;21.30;99.90;;;;;;5089841;28;20089;-57
2022/10/28 11:57:15;;;;;;;10.80;4.15;;;21.30;99.90;;;;;;5107487;28;20036;-57
2022/10/28 12:00:02;;;;;;;18.52;4.72;;;21.40;99.90;;;;;;5097705;28;20439;-57
2022/10/28 12:02:46;;;;;;;17.75;4.30;;;21.40;99.90;;;;;;5098597;28;20047;-57
2022/10/28 12:05:48;;;;;;;20.13;4.40;;;21.40;99.90;;;;;;5088936;28;20068;-58
2022/10/28 12:08:17;;;;;;;16.23;4.60;;;21.50;99.90;;;;;;5107335;28;20036;-57
2022/10/28 12:11:10;;;;;;;16.80;4.68;;;21.50;99.90;;;;;;5107087;28;20032;-58
2022/10/28 12:13:44;;;;;;;16.80;4.53;;;21.50;99.90;;;;;;5106119;28;20039;-57
2022/10/28 12:16:22;;;;;;;13.00;5.05;;;21.50;99.90;;;;;;5106939;28;20067;-56
2022/10/28 12:18:57;;;;;;;17.27;4.35;;;21.50;99.90;;;;;;5106243;28;20065;-58
2022/10/28 12:21:35;;;;;;;15.80;4.70;;;21.40;99.90;;;;;;5107175;28;20035;-57
2022/10/28 12:24:03;;;;;;;15.55;4.90;;;21.40;99.90;;;;;;5106238;28;20527;-58
2022/10/28 12:26:38;;;;;;;15.38;5.28;;;21.40;99.90;;;;;;5094302;28;20040;-57
2022/10/28 12:29:15;;;;;;;12.25;4.30;;;21.40;99.90;;;;;;5108176;28;20588;-58
2022/10/28 12:31:46;;;;;;;19.38;4.35;;;21.40;99.90;;;;;;5094353;28;20059;-58
2022/10/28 12:34:17;;;;;;;16.65;4.72;;;21.40;99.90;;;;;;5115661;28;20386;-56
2022/10/28 12:36:51;;;;;;;13.63;4.47;;;21.50;99.90;;;;;;5107845;28;20051;-58
2022/10/28 12:39:22;;;;;;;14.10;5.43;;;21.50;99.90;;;;;;5108113;28;20043;-57
2022/10/28 12:42:15;;;;;;;12.82;4.55;;;21.50;99.90;;;;;;5117400;28;20084;-57
2022/10/28 12:44:41;;;;;;;14.45;3.92;;;21.50;99.90;;;;;;5121914;28;20053;-55
2022/10/28 12:47:27;;;;;;;23.75;4.88;;;21.40;99.90;;;;;;5118307;28;20035;-58
2022/10/28 12:50:19;;;;;;;10.85;4.03;;;21.40;99.90;;;;;;5123249;28;20040;-57
2022/10/28 12:53:13;;;;;;;17.23;4.75;;;21.40;99.90;;;;;;5083089;28;20083;-57
2022/10/28 12:55:54;;;;;;;16.00;4.05;;;21.40;99.90;;;;;;5076060;28;20099;-55
2022/10/28 12:58:32;;;;;;;21.73;4.88;;;21.30;99.90;;;;;;5092361;28;20051;-58
2022/10/28 13:01:11;;;;;;;12.80;3.97;;;21.30;99.90;;;;;;5102979;28;20036;-57
2022/10/28 13:03:39;;;;;;;20.30;4.35;;;21.30;99.90;;;;;;5089822;28;20051;-58
2022/10/28 13:06:23;;;;;;;18.05;5.30;;;21.20;99.90;;;;;;5094222;28;20036;-56
2022/10/28 13:09:09;;;;;;;11.52;4.15;;;21.20;99.90;;;;;;5090336;28;20041;-61
2022/10/28 13:11:52;;;;;;;14.90;4.77;;;21.20;99.90;;;;;;5099145;28;20036;-56
2022/10/28 13:14:39;;;;;;;19.20;5.53;;;21.20;99.90;;;;;;5082995;28;20294;-65
2022/10/28 13:17:42;;;;;;;17.73;4.88;;;21.20;99.90;;;;;;5094664;28;20065;-57
2022/10/28 13:20:42;;;;;;;10.68;4.85;;;21.20;99.90;;;;;;5094315;28;20385;-61
2022/10/28 13:23:41;;;;;;;10.40;5.13;;;21.20;99.90;;;;;;5094521;28;20039;-59
2022/10/28 13:26:15;;;;;;;19.27;4.95;;;21.20;99.90;;;;;;5106882;28;20438;-59
2022/10/28 13:28:46;;;;;;;17.00;4.50;;;21.20;99.90;;;;;;5081535;28;20044;-58
2022/10/28 13:31:14;;;;;;;16.27;4.82;;;21.20;99.90;;;;;;5107740;28;20047;-58
2022/10/28 13:34:05;;;;;;;20.20;5.65;;;21.20;99.90;;;;;;5097621;28;20048;-57
2022/10/28 13:36:35;;;;;;;18.42;5.00;;;21.20;99.90;;;;;;5091016;28;20048;-57
2022/10/28 13:39:04;;;;;;;23.40;5.45;;;21.20;99.90;;;;;;5091395;28;20047;-59
2022/10/28 13:41:38;;;;;;;13.05;4.55;;;21.30;99.90;;;;;;5091751;28;20039;-55
2022/10/28 13:44:07;;;;;;;25.67;5.40;;;21.20;99.90;;;;;;5091865;28;20032;-57
2022/10/28 13:46:57;;;;;;;13.70;4.10;;;21.20;99.90;;;;;;5083616;28;20508;-56
2022/10/28 13:49:30;;;;;;;22.27;5.68;;;21.20;99.90;;;;;;5074607;28;20390;-57
2022/10/28 13:52:12;;;;;;;19.27;4.60;;;21.20;99.90;;;;;;5081563;28;20497;-55
2022/10/28 13:54:43;;;;;;;16.10;5.00;;;21.10;99.90;;;;;;5098011;28;20082;-59
2022/10/28 13:57:14;;;;;;;17.40;5.38;;;21.10;99.90;;;;;;5074715;28;20040;-55
2022/10/28 13:59:51;;;;;;;18.98;4.68;;;21.10;99.90;;;;;;5089555;28;20032;-57
2022/10/28 14:02:23;;;;;;;29.88;6.50;;;21.00;99.90;;;;;;5079743;28;20520;-57
2022/10/28 14:05:00;;;;;;;12.43;4.90;;;21.00;99.90;;;;;;5091539;28;20400;-56
2022/10/28 14:07:30;;;;;;;17.80;4.50;;;21.00;99.90;;;;;;5091332;28;20043;-56
2022/10/28 14:10:10;;;;;;;13.38;5.00;;;20.90;99.90;;;;;;5090135;28;20328;-56
2022/10/28 14:12:42;;;;;;;19.08;4.47;;;20.90;99.90;;;;;;5095196;28;20058;-57
2022/10/28 14:15:21;;;;;;;19.05;5.10;;;20.80;99.90;;;;;;5087958;28;20505;-55